sensor_id;sensor_type;location;lat;lon;timestamp;pressure;altitude;pressure_sealevel;temperature;humidity
29121;BME280;16191;49.548;8.658;2023-05-24T00:00:12;100859.69;;;11.93;100.00
29121;BME280;16191;49.548;8.658;2023-05-24T00:02:39;100855.16;;;11.98;100.00
29121;BME280;16191;49.548;8.658;2023-05-24T00:05:09;100858.34;;;11.83;100.00
29121;BME280;16191;49.548;8.658;2023-05-24T00:07:36;100851.28;;;11.85;100.00
29121;BME280;16191;49.548;8.658;2023-05-24T00:10:04;100851.25;;;11.86;100.00
29121;BME280;16191;49.548;8.658;2023-05-24T00:12:31;100844.56;;;11.78;100.00
29121;BME280;16191;49.548;8.658;2023-05-24T00:14:58;100843.34;;;11.88;100.00
29121;BME280;16191;49.548;8.658;2023-05-24T00:17:25;100849.31;;;11.66;100.00
29121;BME280;16191;49.548;8.658;2023-05-24T00:19:53;100849.06;;;11.73;100.00
29121;BME280;16191;49.548;8.658;2023-05-24T00:22:19;100850.72;;;11.75;100.00
29121;BME280;16191;49.548;8.658;2023-05-24T00:24:47;100843.72;;;11.76;100.00
29121;BME280;16191;49.548;8.658;2023-05-24T00:27:14;100844.63;;;11.75;100.00
29121;BME280;16191;49.548;8.658;2023-05-24T00:29:40;100843.19;;;11.67;100.00
29121;BME280;16191;49.548;8.658;2023-05-24T00:32:07;100838.97;;;11.63;100.00
29121;BME280;16191;49.548;8.658;2023-05-24T00:34:35;100836.41;;;11.62;100.00
29121;BME280;16191;49.548;8.658;2023-05-24T00:37:03;100844.41;;;11.57;100.00
29121;BME280;16191;49.548;8.658;2023-05-24T00:39:29;100838.41;;;11.54;100.00
29121;BME280;16191;49.548;8.658;2023-05-24T00:41:56;100833.78;;;11.62;100.00
29121;BME280;16191;49.548;8.658;2023-05-24T00:44:23;100833.94;;;11.57;100.00
29121;BME280;16191;49.548;8.658;2023-05-24T00:46:49;100829.56;;;11.58;100.00
29121;BME280;16191;49.548;8.658;2023-05-24T00:55:01;100824.91;;;11.43;100.00
29121;BME280;16191;49.548;8.658;2023-05-24T00:57:28;100804.28;;;11.33;100.00
29121;BME280;16191;49.548;8.658;2023-05-24T00:59:55;100814.84;;;11.30;100.00
29121;BME280;16191;49.548;8.658;2023-05-24T01:02:22;100806.59;;;11.18;100.00
29121;BME280;16191;49.548;8.658;2023-05-24T01:04:50;100820.41;;;11.21;100.00
29121;BME280;16191;49.548;8.658;2023-05-24T01:10:16;100815.25;;;11.20;100.00
29121;BME280;16191;49.548;8.658;2023-05-24T01:16:48;100821.38;;;11.19;100.00
29121;BME280;16191;49.548;8.658;2023-05-24T01:20:09;100829.31;;;11.16;100.00
29121;BME280;16191;49.548;8.658;2023-05-24T01:26:39;100825.06;;;11.12;100.00
29121;BME280;16191;49.548;8.658;2023-05-24T01:29:08;100819.91;;;11.10;100.00
29121;BME280;16191;49.548;8.658;2023-05-24T01:31:36;100818.25;;;11.08;100.00
29121;BME280;16191;49.548;8.658;2023-05-24T01:34:03;100827.88;;;11.06;100.00
29121;BME280;16191;49.548;8.658;2023-05-24T01:36:30;100824.78;;;10.94;100.00
29121;BME280;16191;49.548;8.658;2023-05-24T01:38:56;100829.88;;;10.99;100.00
29121;BME280;16191;49.548;8.658;2023-05-24T01:41:57;100826.31;;;11.02;100.00
29121;BME280;16191;49.548;8.658;2023-05-24T01:47:23;100831.78;;;10.94;100.00
29121;BME280;16191;49.548;8.658;2023-05-24T01:49:59;100847.63;;;10.88;100.00
29121;BME280;16191;49.548;8.658;2023-05-24T01:52:32;100847.72;;;10.85;100.00
29121;BME280;16191;49.548;8.658;2023-05-24T01:55:02;100848.59;;;10.85;100.00
29121;BME280;16191;49.548;8.658;2023-05-24T01:57:31;100850.59;;;10.77;100.00
29121;BME280;16191;49.548;8.658;2023-05-24T02:00:00;100848.91;;;10.76;100.00
29121;BME280;16191;49.548;8.658;2023-05-24T02:02:38;100849.13;;;10.69;100.00
29121;BME280;16191;49.548;8.658;2023-05-24T02:05:06;100856.72;;;10.76;100.00
29121;BME280;16191;49.548;8.658;2023-05-24T02:07:33;100850.69;;;10.74;100.00
29121;BME280;16191;49.548;8.658;2023-05-24T02:10:00;100848.13;;;10.73;100.00
29121;BME280;16191;49.548;8.658;2023-05-24T02:12:27;100842.25;;;10.66;100.00
29121;BME280;16191;49.548;8.658;2023-05-24T02:14:53;100840.75;;;10.59;100.00
29121;BME280;16191;49.548;8.658;2023-05-24T02:17:22;100843.09;;;10.67;100.00
29121;BME280;16191;49.548;8.658;2023-05-24T02:19:52;100842.06;;;10.72;100.00
29121;BME280;16191;49.548;8.658;2023-05-24T02:22:18;100848.22;;;10.70;100.00
29121;BME280;16191;49.548;8.658;2023-05-24T02:24:47;100845.47;;;10.74;100.00
29121;BME280;16191;49.548;8.658;2023-05-24T02:27:14;100847.81;;;10.55;100.00
29121;BME280;16191;49.548;8.658;2023-05-24T02:29:41;100845.81;;;10.63;100.00
29121;BME280;16191;49.548;8.658;2023-05-24T02:32:07;100844.53;;;10.77;100.00
29121;BME280;16191;49.548;8.658;2023-05-24T02:34:34;100855.06;;;10.74;100.00
29121;BME280;16191;49.548;8.658;2023-05-24T02:37:00;100858.56;;;10.73;100.00
29121;BME280;16191;49.548;8.658;2023-05-24T02:39:27;100854.94;;;10.78;100.00
29121;BME280;16191;49.548;8.658;2023-05-24T02:41:54;100846.38;;;10.73;100.00
29121;BME280;16191;49.548;8.658;2023-05-24T02:44:20;100847.56;;;10.63;100.00
29121;BME280;16191;49.548;8.658;2023-05-24T02:46:47;100845.66;;;10.68;100.00
29121;BME280;16191;49.548;8.658;2023-05-24T02:49:14;100848.63;;;10.57;100.00
29121;BME280;16191;49.548;8.658;2023-05-24T02:51:40;100845.97;;;10.59;100.00
29121;BME280;16191;49.548;8.658;2023-05-24T02:54:07;100843.94;;;10.67;100.00
29121;BME280;16191;49.548;8.658;2023-05-24T02:56:34;100839.00;;;10.59;100.00
29121;BME280;16191;49.548;8.658;2023-05-24T02:59:01;100839.41;;;10.46;100.00
29121;BME280;16191;49.548;8.658;2023-05-24T03:01:28;100849.88;;;10.44;100.00
29121;BME280;16191;49.548;8.658;2023-05-24T03:03:57;100841.88;;;10.50;100.00
29121;BME280;16191;49.548;8.658;2023-05-24T03:06:23;100845.97;;;10.31;100.00
29121;BME280;16191;49.548;8.658;2023-05-24T03:08:50;100841.16;;;10.45;100.00
29121;BME280;16191;49.548;8.658;2023-05-24T03:11:17;100850.19;;;10.35;100.00
29121;BME280;16191;49.548;8.658;2023-05-24T03:13:47;100852.78;;;10.35;100.00
29121;BME280;16191;49.548;8.658;2023-05-24T03:16:15;100849.03;;;10.44;100.00
29121;BME280;16191;49.548;8.658;2023-05-24T03:18:45;100849.00;;;10.45;100.00
29121;BME280;16191;49.548;8.658;2023-05-24T03:21:13;100859.75;;;10.35;100.00
29121;BME280;16191;49.548;8.658;2023-05-24T03:23:40;100852.16;;;10.27;100.00
29121;BME280;16191;49.548;8.658;2023-05-24T03:26:07;100858.28;;;10.26;100.00
29121;BME280;16191;49.548;8.658;2023-05-24T03:28:33;100860.16;;;10.21;100.00
29121;BME280;16191;49.548;8.658;2023-05-24T03:31:01;100859.56;;;10.11;100.00
29121;BME280;16191;49.548;8.658;2023-05-24T03:33:27;100859.31;;;10.20;100.00
29121;BME280;16191;49.548;8.658;2023-05-24T03:35:54;100866.41;;;10.15;100.00
29121;BME280;16191;49.548;8.658;2023-05-24T03:38:22;100858.22;;;10.27;100.00
29121;BME280;16191;49.548;8.658;2023-05-24T03:40:49;100858.38;;;10.23;100.00
29121;BME280;16191;49.548;8.658;2023-05-24T03:43:16;100867.28;;;10.14;100.00
29121;BME280;16191;49.548;8.658;2023-05-24T03:45:47;100860.06;;;10.24;100.00
29121;BME280;16191;49.548;8.658;2023-05-24T03:48:13;100863.44;;;10.27;100.00
29121;BME280;16191;49.548;8.658;2023-05-24T03:50:40;100863.56;;;10.23;100.00
29121;BME280;16191;49.548;8.658;2023-05-24T03:53:07;100868.75;;;10.24;100.00
29121;BME280;16191;49.548;8.658;2023-05-24T03:55:34;100866.00;;;10.29;100.00
29121;BME280;16191;49.548;8.658;2023-05-24T03:58:00;100855.66;;;10.26;100.00
29121;BME280;16191;49.548;8.658;2023-05-24T04:00:27;100851.19;;;10.31;100.00
29121;BME280;16191;49.548;8.658;2023-05-24T04:02:54;100855.59;;;10.29;100.00
29121;BME280;16191;49.548;8.658;2023-05-24T04:05:21;100841.78;;;10.25;100.00
29121;BME280;16191;49.548;8.658;2023-05-24T04:07:52;100844.41;;;10.24;100.00
29121;BME280;16191;49.548;8.658;2023-05-24T04:10:19;100854.81;;;10.25;100.00
29121;BME280;16191;49.548;8.658;2023-05-24T04:12:47;100860.16;;;10.21;100.00
29121;BME280;16191;49.548;8.658;2023-05-24T04:15:13;100855.97;;;10.15;100.00
29121;BME280;16191;49.548;8.658;2023-05-24T04:17:41;100870.75;;;10.15;100.00
29121;BME280;16191;49.548;8.658;2023-05-24T04:20:10;100870.47;;;10.25;100.00
29121;BME280;16191;49.548;8.658;2023-05-24T04:22:37;100867.78;;;10.28;100.00
29121;BME280;16191;49.548;8.658;2023-05-24T04:25:04;100871.91;;;10.36;100.00
29121;BME280;16191;49.548;8.658;2023-05-24T04:27:32;100864.44;;;10.23;100.00
29121;BME280;16191;49.548;8.658;2023-05-24T04:29:59;100870.50;;;10.24;100.00
29121;BME280;16191;49.548;8.658;2023-05-24T04:32:25;100857.50;;;10.22;100.00
29121;BME280;16191;49.548;8.658;2023-05-24T04:34:55;100869.66;;;10.23;100.00
29121;BME280;16191;49.548;8.658;2023-05-24T04:37:23;100873.06;;;10.25;100.00
29121;BME280;16191;49.548;8.658;2023-05-24T04:39:50;100870.66;;;9.88;100.00
29121;BME280;16191;49.548;8.658;2023-05-24T04:42:17;100871.19;;;10.00;100.00
29121;BME280;16191;49.548;8.658;2023-05-24T04:44:43;100873.25;;;9.88;100.00
29121;BME280;16191;49.548;8.658;2023-05-24T04:47:10;100876.25;;;10.04;100.00
29121;BME280;16191;49.548;8.658;2023-05-24T04:49:38;100875.69;;;9.94;100.00
29121;BME280;16191;49.548;8.658;2023-05-24T04:52:05;100874.97;;;9.89;100.00
29121;BME280;16191;49.548;8.658;2023-05-24T04:54:32;100877.13;;;10.05;100.00
29121;BME280;16191;49.548;8.658;2023-05-24T04:56:59;100884.88;;;10.08;100.00
29121;BME280;16191;49.548;8.658;2023-05-24T04:59:26;100880.41;;;10.11;100.00
29121;BME280;16191;49.548;8.658;2023-05-24T05:01:52;100888.91;;;10.18;100.00
29121;BME280;16191;49.548;8.658;2023-05-24T05:04:19;100888.13;;;10.16;100.00
29121;BME280;16191;49.548;8.658;2023-05-24T05:06:45;100892.34;;;10.20;100.00
29121;BME280;16191;49.548;8.658;2023-05-24T05:09:13;100896.06;;;10.11;100.00
29121;BME280;16191;49.548;8.658;2023-05-24T05:11:41;100890.78;;;10.14;100.00
29121;BME280;16191;49.548;8.658;2023-05-24T05:14:08;100883.41;;;10.28;100.00
29121;BME280;16191;49.548;8.658;2023-05-24T05:16:35;100891.06;;;10.35;100.00
29121;BME280;16191;49.548;8.658;2023-05-24T05:19:03;100892.56;;;10.42;100.00
29121;BME280;16191;49.548;8.658;2023-05-24T05:21:33;100899.50;;;10.43;100.00
29121;BME280;16191;49.548;8.658;2023-05-24T05:24:00;100890.88;;;10.41;100.00
29121;BME280;16191;49.548;8.658;2023-05-24T05:26:27;100892.06;;;10.30;100.00
29121;BME280;16191;49.548;8.658;2023-05-24T05:28:54;100891.31;;;10.55;100.00
29121;BME280;16191;49.548;8.658;2023-05-24T05:31:21;100893.13;;;10.53;100.00
29121;BME280;16191;49.548;8.658;2023-05-24T05:33:48;100895.34;;;10.65;100.00
29121;BME280;16191;49.548;8.658;2023-05-24T05:36:15;100901.63;;;10.59;100.00
29121;BME280;16191;49.548;8.658;2023-05-24T05:38:42;100899.47;;;10.72;100.00
29121;BME280;16191;49.548;8.658;2023-05-24T05:41:09;100901.91;;;10.78;100.00
29121;BME280;16191;49.548;8.658;2023-05-24T05:43:37;100891.78;;;10.68;100.00
29121;BME280;16191;49.548;8.658;2023-05-24T05:46:04;100902.50;;;10.60;100.00
29121;BME280;16191;49.548;8.658;2023-05-24T05:48:31;100905.81;;;10.63;100.00
29121;BME280;16191;49.548;8.658;2023-05-24T05:50:57;100902.63;;;10.55;100.00
29121;BME280;16191;49.548;8.658;2023-05-24T05:53:24;100906.97;;;10.55;100.00
29121;BME280;16191;49.548;8.658;2023-05-24T05:55:50;100897.78;;;10.71;100.00
29121;BME280;16191;49.548;8.658;2023-05-24T05:58:17;100897.56;;;10.79;100.00
29121;BME280;16191;49.548;8.658;2023-05-24T06:00:44;100904.78;;;10.97;100.00
29121;BME280;16191;49.548;8.658;2023-05-24T06:03:10;100900.69;;;11.16;100.00
29121;BME280;16191;49.548;8.658;2023-05-24T06:05:37;100907.28;;;11.26;100.00
29121;BME280;16191;49.548;8.658;2023-05-24T06:08:04;100902.81;;;11.30;100.00
29121;BME280;16191;49.548;8.658;2023-05-24T06:10:30;100902.88;;;11.28;100.00
29121;BME280;16191;49.548;8.658;2023-05-24T06:12:57;100897.41;;;11.36;100.00
29121;BME280;16191;49.548;8.658;2023-05-24T06:15:23;100900.13;;;11.33;96.29
29121;BME280;16191;49.548;8.658;2023-05-24T06:17:50;100903.63;;;11.32;96.60
29121;BME280;16191;49.548;8.658;2023-05-24T06:20:18;100903.19;;;11.46;96.30
29121;BME280;16191;49.548;8.658;2023-05-24T06:22:44;100906.97;;;11.62;95.62
29121;BME280;16191;49.548;8.658;2023-05-24T06:25:11;100905.75;;;11.47;92.56
29121;BME280;16191;49.548;8.658;2023-05-24T06:27:44;100911.44;;;11.58;92.30
29121;BME280;16191;49.548;8.658;2023-05-24T06:30:11;100904.25;;;11.65;91.69
29121;BME280;16191;49.548;8.658;2023-05-24T06:32:38;100915.06;;;11.81;92.47
29121;BME280;16191;49.548;8.658;2023-05-24T06:35:06;100913.34;;;11.80;88.71
29121;BME280;16191;49.548;8.658;2023-05-24T06:37:33;100912.78;;;11.70;88.98
29121;BME280;16191;49.548;8.658;2023-05-24T06:40:00;100914.31;;;11.77;87.86
29121;BME280;16191;49.548;8.658;2023-05-24T06:42:27;100918.53;;;11.81;87.41
29121;BME280;16191;49.548;8.658;2023-05-24T06:44:53;100917.50;;;11.85;86.98
29121;BME280;16191;49.548;8.658;2023-05-24T06:47:20;100911.81;;;11.73;86.77
29121;BME280;16191;49.548;8.658;2023-05-24T06:49:47;100917.22;;;11.93;86.61
29121;BME280;16191;49.548;8.658;2023-05-24T06:52:15;100925.44;;;12.07;85.30
29121;BME280;16191;49.548;8.658;2023-05-24T06:54:42;100916.66;;;12.33;85.42
29121;BME280;16191;49.548;8.658;2023-05-24T06:57:08;100924.78;;;12.49;82.53
29121;BME280;16191;49.548;8.658;2023-05-24T06:59:35;100923.59;;;12.34;79.71
29121;BME280;16191;49.548;8.658;2023-05-24T07:02:02;100924.50;;;12.33;79.91
29121;BME280;16191;49.548;8.658;2023-05-24T07:04:29;100921.09;;;12.31;79.53
29121;BME280;16191;49.548;8.658;2023-05-24T07:06:56;100928.28;;;12.71;82.55
29121;BME280;16191;49.548;8.658;2023-05-24T07:09:24;100926.44;;;12.73;77.20
29121;BME280;16191;49.548;8.658;2023-05-24T07:11:51;100924.31;;;12.83;75.24
29121;BME280;16191;49.548;8.658;2023-05-24T07:14:18;100932.44;;;12.77;74.55
29121;BME280;16191;49.548;8.658;2023-05-24T07:16:44;100928.22;;;12.94;74.44
29121;BME280;16191;49.548;8.658;2023-05-24T07:19:12;100926.44;;;13.18;73.35
29121;BME280;16191;49.548;8.658;2023-05-24T07:21:39;100929.56;;;13.26;74.03
29121;BME280;16191;49.548;8.658;2023-05-24T07:24:05;100925.91;;;13.30;72.53
29121;BME280;16191;49.548;8.658;2023-05-24T07:26:32;100926.00;;;13.49;72.12
29121;BME280;16191;49.548;8.658;2023-05-24T07:28:59;100926.72;;;13.53;68.77
29121;BME280;16191;49.548;8.658;2023-05-24T07:31:26;100923.97;;;13.56;67.94
29121;BME280;16191;49.548;8.658;2023-05-24T07:33:55;100921.88;;;13.64;68.19
29121;BME280;16191;49.548;8.658;2023-05-24T07:36:21;100916.84;;;13.59;67.42
29121;BME280;16191;49.548;8.658;2023-05-24T07:38:48;100924.41;;;13.65;68.80
29121;BME280;16191;49.548;8.658;2023-05-24T07:41:15;100922.94;;;13.80;68.99
29121;BME280;16191;49.548;8.658;2023-05-24T07:43:42;100913.34;;;13.79;67.49
29121;BME280;16191;49.548;8.658;2023-05-24T07:46:08;100916.53;;;13.86;66.20
29121;BME280;16191;49.548;8.658;2023-05-24T07:48:36;100918.72;;;13.96;65.64
29121;BME280;16191;49.548;8.658;2023-05-24T07:51:02;100920.56;;;14.13;67.33
29121;BME280;16191;49.548;8.658;2023-05-24T07:53:29;100923.84;;;14.18;64.71
29121;BME280;16191;49.548;8.658;2023-05-24T07:55:55;100916.63;;;14.23;64.30
29121;BME280;16191;49.548;8.658;2023-05-24T07:58:22;100921.91;;;14.42;65.24
29121;BME280;16191;49.548;8.658;2023-05-24T08:00:48;100922.81;;;14.79;63.80
29121;BME280;16191;49.548;8.658;2023-05-24T08:03:15;100913.97;;;14.62;63.83
29121;BME280;16191;49.548;8.658;2023-05-24T08:05:43;100913.81;;;14.28;63.72
29121;BME280;16191;49.548;8.658;2023-05-24T08:08:10;100912.97;;;14.65;64.06
29121;BME280;16191;49.548;8.658;2023-05-24T08:10:36;100913.75;;;15.03;62.21
29121;BME280;16191;49.548;8.658;2023-05-24T08:13:03;100918.19;;;15.20;62.40
29121;BME280;16191;49.548;8.658;2023-05-24T08:15:30;100919.28;;;14.80;60.96
29121;BME280;16191;49.548;8.658;2023-05-24T08:17:57;100923.03;;;14.74;60.23
29121;BME280;16191;49.548;8.658;2023-05-24T08:20:24;100920.94;;;14.63;60.86
29121;BME280;16191;49.548;8.658;2023-05-24T08:22:50;100920.34;;;14.75;60.15
29121;BME280;16191;49.548;8.658;2023-05-24T08:25:17;100926.59;;;14.73;60.21
29121;BME280;16191;49.548;8.658;2023-05-24T08:27:44;100921.53;;;15.23;60.23
29121;BME280;16191;49.548;8.658;2023-05-24T08:30:11;100919.28;;;14.61;58.06
29121;BME280;16191;49.548;8.658;2023-05-24T08:32:39;100926.69;;;14.71;59.70
29121;BME280;16191;49.548;8.658;2023-05-24T08:35:06;100919.31;;;14.97;58.73
29121;BME280;16191;49.548;8.658;2023-05-24T08:37:46;100918.75;;;15.26;57.19
29121;BME280;16191;49.548;8.658;2023-05-24T08:40:14;100922.28;;;15.79;58.56
29121;BME280;16191;49.548;8.658;2023-05-24T08:42:41;100928.91;;;15.86;55.82
29121;BME280;16191;49.548;8.658;2023-05-24T08:45:11;100928.03;;;15.33;56.15
29121;BME280;16191;49.548;8.658;2023-05-24T08:47:38;100925.28;;;15.18;55.84
29121;BME280;16191;49.548;8.658;2023-05-24T08:50:07;100925.38;;;15.69;56.45
29121;BME280;16191;49.548;8.658;2023-05-24T08:52:34;100928.09;;;15.15;55.34
29121;BME280;16191;49.548;8.658;2023-05-24T08:55:03;100921.97;;;15.67;55.04
29121;BME280;16191;49.548;8.658;2023-05-24T08:57:31;100917.31;;;15.72;53.98
29121;BME280;16191;49.548;8.658;2023-05-24T09:00:00;100926.00;;;16.07;54.23
29121;BME280;16191;49.548;8.658;2023-05-24T09:02:28;100925.00;;;16.10;52.32
29121;BME280;16191;49.548;8.658;2023-05-24T09:04:55;100928.56;;;16.25;52.70
29121;BME280;16191;49.548;8.658;2023-05-24T09:07:22;100928.63;;;16.56;52.81
29121;BME280;16191;49.548;8.658;2023-05-24T09:09:56;100927.53;;;16.92;52.01
29121;BME280;16191;49.548;8.658;2023-05-24T09:12:25;100921.34;;;16.77;49.07
29121;BME280;16191;49.548;8.658;2023-05-24T09:15:04;100930.25;;;17.22;50.38
29121;BME280;16191;49.548;8.658;2023-05-24T09:17:31;100929.56;;;17.18;48.41
29121;BME280;16191;49.548;8.658;2023-05-24T09:19:59;100919.69;;;17.22;47.26
29121;BME280;16191;49.548;8.658;2023-05-24T09:22:27;100916.75;;;17.42;48.41
29121;BME280;16191;49.548;8.658;2023-05-24T09:25:03;100921.13;;;17.87;47.89
29121;BME280;16191;49.548;8.658;2023-05-24T09:27:31;100918.78;;;17.07;47.79
29121;BME280;16191;49.548;8.658;2023-05-24T09:29:58;100917.22;;;17.78;46.54
29121;BME280;16191;49.548;8.658;2023-05-24T09:32:24;100915.94;;;18.00;46.83
29121;BME280;16191;49.548;8.658;2023-05-24T09:34:52;100919.81;;;18.37;45.72
29121;BME280;16191;49.548;8.658;2023-05-24T09:37:21;100920.44;;;17.98;44.37
29121;BME280;16191;49.548;8.658;2023-05-24T09:39:56;100901.91;;;18.83;44.61
29121;BME280;16191;49.548;8.658;2023-05-24T09:42:24;100905.06;;;19.15;41.84
29121;BME280;16191;49.548;8.658;2023-05-24T09:45:00;100909.88;;;18.96;42.37
29121;BME280;16191;49.548;8.658;2023-05-24T09:47:29;100903.03;;;18.79;42.91
29121;BME280;16191;49.548;8.658;2023-05-24T09:49:56;100911.78;;;18.38;42.76
29121;BME280;16191;49.548;8.658;2023-05-24T09:52:22;100908.84;;;18.00;43.30
29121;BME280;16191;49.548;8.658;2023-05-24T09:54:50;100911.59;;;17.85;45.26
29121;BME280;16191;49.548;8.658;2023-05-24T09:57:17;100906.31;;;17.55;45.07
29121;BME280;16191;49.548;8.658;2023-05-24T09:59:45;100900.41;;;17.35;45.01
29121;BME280;16191;49.548;8.658;2023-05-24T10:02:11;100903.38;;;17.45;46.25
29121;BME280;16191;49.548;8.658;2023-05-24T10:04:38;100909.19;;;17.36;44.86
29121;BME280;16191;49.548;8.658;2023-05-24T10:07:06;100906.25;;;17.26;45.11
29121;BME280;16191;49.548;8.658;2023-05-24T10:09:34;100910.53;;;17.73;45.44
29121;BME280;16191;49.548;8.658;2023-05-24T10:12:03;100908.84;;;17.86;45.50
29121;BME280;16191;49.548;8.658;2023-05-24T10:14:37;100913.50;;;18.11;45.67
29121;BME280;16191;49.548;8.658;2023-05-24T10:17:05;100923.41;;;18.36;45.36
29121;BME280;16191;49.548;8.658;2023-05-24T10:19:36;100916.81;;;18.14;44.77
29121;BME280;16191;49.548;8.658;2023-05-24T10:22:06;100928.97;;;18.87;44.99
29121;BME280;16191;49.548;8.658;2023-05-24T10:24:45;100917.03;;;18.81;43.85
29121;BME280;16191;49.548;8.658;2023-05-24T10:27:20;100931.09;;;18.67;43.55
29121;BME280;16191;49.548;8.658;2023-05-24T10:32:52;100920.34;;;18.70;42.77
29121;BME280;16191;49.548;8.658;2023-05-24T10:35:21;100910.34;;;19.02;42.18
29121;BME280;16191;49.548;8.658;2023-05-24T10:37:49;100905.00;;;19.56;41.57
29121;BME280;16191;49.548;8.658;2023-05-24T10:40:18;100898.56;;;19.33;41.86
29121;BME280;16191;49.548;8.658;2023-05-24T10:42:51;100899.59;;;19.18;41.33
29121;BME280;16191;49.548;8.658;2023-05-24T10:47:51;100891.56;;;20.10;41.25
29121;BME280;16191;49.548;8.658;2023-05-24T10:50:20;100884.44;;;19.98;41.32
29121;BME280;16191;49.548;8.658;2023-05-24T10:52:48;100880.97;;;20.10;41.03
29121;BME280;16191;49.548;8.658;2023-05-24T10:55:15;100874.16;;;19.55;40.89
29121;BME280;16191;49.548;8.658;2023-05-24T10:57:44;100882.34;;;19.77;41.33
29121;BME280;16191;49.548;8.658;2023-05-24T11:03:08;100886.13;;;20.24;40.44
29121;BME280;16191;49.548;8.658;2023-05-24T11:08:29;100877.22;;;20.38;40.45
29121;BME280;16191;49.548;8.658;2023-05-24T11:11:06;100876.50;;;19.98;41.20
29121;BME280;16191;49.548;8.658;2023-05-24T11:13:55;100873.28;;;20.18;39.45
29121;BME280;16191;49.548;8.658;2023-05-24T11:16:36;100879.44;;;20.18;38.94
29121;BME280;16191;49.548;8.658;2023-05-24T11:19:17;100880.53;;;19.65;38.60
29121;BME280;16191;49.548;8.658;2023-05-24T11:21:45;100874.28;;;20.04;38.14
29121;BME280;16191;49.548;8.658;2023-05-24T11:24:15;100871.97;;;20.36;36.85
29121;BME280;16191;49.548;8.658;2023-05-24T11:26:42;100861.22;;;20.63;37.84
29121;BME280;16191;49.548;8.658;2023-05-24T11:29:12;100874.09;;;20.80;36.84
29121;BME280;16191;49.548;8.658;2023-05-24T11:31:46;100879.47;;;20.68;35.85
29121;BME280;16191;49.548;8.658;2023-05-24T11:34:12;100866.03;;;20.82;36.51
29121;BME280;16191;49.548;8.658;2023-05-24T11:36:39;100869.03;;;20.77;37.05
29121;BME280;16191;49.548;8.658;2023-05-24T11:39:06;100869.88;;;20.54;36.00
29121;BME280;16191;49.548;8.658;2023-05-24T11:41:37;100857.81;;;20.74;36.82
29121;BME280;16191;49.548;8.658;2023-05-24T11:44:08;100853.75;;;21.16;37.56
29121;BME280;16191;49.548;8.658;2023-05-24T11:46:37;100857.09;;;21.07;36.51
29121;BME280;16191;49.548;8.658;2023-05-24T11:49:04;100859.59;;;20.49;36.63
29121;BME280;16191;49.548;8.658;2023-05-24T11:51:33;100849.34;;;21.04;36.53
29121;BME280;16191;49.548;8.658;2023-05-24T11:54:00;100848.09;;;21.55;35.18
29121;BME280;16191;49.548;8.658;2023-05-24T11:56:28;100848.72;;;22.37;35.68
29121;BME280;16191;49.548;8.658;2023-05-24T11:59:14;100848.88;;;22.13;34.89
29121;BME280;16191;49.548;8.658;2023-05-24T12:01:41;100848.63;;;21.26;35.89
29121;BME280;16191;49.548;8.658;2023-05-24T12:04:08;100841.56;;;21.48;36.22
29121;BME280;16191;49.548;8.658;2023-05-24T12:06:38;100847.94;;;21.35;36.11
29121;BME280;16191;49.548;8.658;2023-05-24T12:09:05;100840.81;;;22.58;35.23
29121;BME280;16191;49.548;8.658;2023-05-24T12:11:46;100830.16;;;22.04;35.58
29121;BME280;16191;49.548;8.658;2023-05-24T12:14:13;100832.50;;;21.51;36.12
29121;BME280;16191;49.548;8.658;2023-05-24T12:16:41;100842.16;;;21.52;36.17
29121;BME280;16191;49.548;8.658;2023-05-24T12:19:15;100836.84;;;22.52;35.90
29121;BME280;16191;49.548;8.658;2023-05-24T12:21:57;100838.16;;;23.22;34.42
29121;BME280;16191;49.548;8.658;2023-05-24T12:24:25;100833.34;;;22.52;33.34
29121;BME280;16191;49.548;8.658;2023-05-24T12:26:57;100833.78;;;23.32;32.84
29121;BME280;16191;49.548;8.658;2023-05-24T12:29:23;100831.59;;;22.84;35.06
29121;BME280;16191;49.548;8.658;2023-05-24T12:31:50;100822.06;;;23.23;34.24
29121;BME280;16191;49.548;8.658;2023-05-24T12:34:19;100830.00;;;22.82;33.08
29121;BME280;16191;49.548;8.658;2023-05-24T12:36:46;100819.66;;;23.20;31.95
29121;BME280;16191;49.548;8.658;2023-05-24T12:41:51;100815.72;;;23.15;30.49
29121;BME280;16191;49.548;8.658;2023-05-24T12:44:23;100815.59;;;23.16;29.90
29121;BME280;16191;49.548;8.658;2023-05-24T12:46:54;100819.78;;;23.81;29.59
29121;BME280;16191;49.548;8.658;2023-05-24T12:49:22;100810.78;;;23.52;30.65
29121;BME280;16191;49.548;8.658;2023-05-24T12:51:50;100813.19;;;22.49;32.78
29121;BME280;16191;49.548;8.658;2023-05-24T12:54:18;100806.88;;;23.86;33.42
29121;BME280;16191;49.548;8.658;2023-05-24T12:56:45;100799.47;;;23.60;31.57
29121;BME280;16191;49.548;8.658;2023-05-24T12:59:11;100801.16;;;23.61;31.94
29121;BME280;16191;49.548;8.658;2023-05-24T13:01:38;100800.22;;;24.11;30.84
29121;BME280;16191;49.548;8.658;2023-05-24T13:04:05;100794.69;;;23.53;31.65
29121;BME280;16191;49.548;8.658;2023-05-24T13:06:32;100796.72;;;23.50;32.51
29121;BME280;16191;49.548;8.658;2023-05-24T13:08:58;100797.75;;;22.96;32.70
29121;BME280;16191;49.548;8.658;2023-05-24T13:11:25;100788.41;;;23.95;32.26
29121;BME280;16191;49.548;8.658;2023-05-24T13:13:52;100802.25;;;24.29;32.16
29121;BME280;16191;49.548;8.658;2023-05-24T13:16:19;100798.75;;;25.53;30.58
29121;BME280;16191;49.548;8.658;2023-05-24T13:18:47;100797.66;;;24.69;31.62
29121;BME280;16191;49.548;8.658;2023-05-24T13:21:13;100790.09;;;23.65;31.34
29121;BME280;16191;49.548;8.658;2023-05-24T13:23:41;100788.16;;;25.05;30.42